createdAt,value
2022-08-27T00:02:01.360Z,50.90
2022-08-27T00:04:03.795Z,50.62
2022-08-27T00:06:05.611Z,50.30
2022-08-27T00:08:10.845Z,51.03
2022-08-27T00:10:17.372Z,50.64
2022-08-27T00:12:19.133Z,50.62
2022-08-27T00:14:20.930Z,50.36
2022-08-27T00:16:23.881Z,51.46
2022-08-27T00:18:26.374Z,50.39
2022-08-27T00:20:28.525Z,51.52
2022-08-27T00:22:30.206Z,52.18
2022-08-27T00:24:31.926Z,52.03
2022-08-27T00:26:33.837Z,51.51
2022-08-27T00:28:36.066Z,53.40
2022-08-27T00:30:37.945Z,51.74
2022-08-27T00:32:42.409Z,52.85
2022-08-27T00:34:44.090Z,51.64
2022-08-27T00:36:45.952Z,50.88
2022-08-27T00:38:47.999Z,51.60
2022-08-27T00:40:55.579Z,50.80
2022-08-27T00:42:58.095Z,52.62
2022-08-27T00:44:59.800Z,52.30
2022-08-27T00:47:06.709Z,51.75
2022-08-27T00:49:10.360Z,52.57
2022-08-27T00:51:12.123Z,52.91
2022-08-27T00:53:18.100Z,51.45
2022-08-27T00:55:30.675Z,50.66
2022-08-27T00:57:35.926Z,50.06
2022-08-27T00:59:38.824Z,49.58
2022-08-27T01:02:01.107Z,49.92
2022-08-27T01:04:06.035Z,50.48
2022-08-27T01:06:16.024Z,51.40
2022-08-27T01:08:22.564Z,50.48
2022-08-27T01:10:28.190Z,52.24
2022-08-27T01:12:33.053Z,51.89
2022-08-27T01:14:36.246Z,50.83
2022-08-27T01:16:41.254Z,51.66
2022-08-27T01:18:44.564Z,51.87
2022-08-27T01:21:03.011Z,51.60
2022-08-27T01:23:09.706Z,50.34
2022-08-27T01:25:14.442Z,50.75
2022-08-27T01:27:21.151Z,50.68
2022-08-27T01:29:22.788Z,51.63
2022-08-27T01:31:24.573Z,50.82
2022-08-27T01:33:26.261Z,51.06
2022-08-27T01:35:28.050Z,51.06
2022-08-27T01:37:30.306Z,49.99
2022-08-27T01:39:36.261Z,50.69
2022-08-27T01:41:38.405Z,50.45
2022-08-27T01:43:41.397Z,51.05
2022-08-27T01:45:46.590Z,51.04
2022-08-27T01:47:48.350Z,52.24
2022-08-27T01:49:50.826Z,52.11
2022-08-27T01:51:52.576Z,52.07
2022-08-27T01:53:54.450Z,50.87
2022-08-27T01:55:57.334Z,51.33
2022-08-27T01:57:59.022Z,51.20
2022-08-27T02:00:03.177Z,51.30
2022-08-27T02:02:05.820Z,50.39
2022-08-27T02:04:07.541Z,50.39
2022-08-27T02:06:11.484Z,49.98
2022-08-27T02:08:16.057Z,51.01
2022-08-27T02:10:21.981Z,50.95
2022-08-27T02:12:23.623Z,50.54
2022-08-27T02:14:25.365Z,51.76
2022-08-27T02:16:27.043Z,51.00
2022-08-27T02:18:28.811Z,50.84
2022-08-27T02:20:31.448Z,51.69
2022-08-27T02:22:33.148Z,51.23
2022-08-27T02:24:34.866Z,51.97
2022-08-27T02:26:38.105Z,52.37
2022-08-27T02:28:39.705Z,51.23
2022-08-27T02:30:41.775Z,51.39
2022-08-27T02:32:43.880Z,50.77
2022-08-27T02:34:45.573Z,51.00
2022-08-27T02:36:47.661Z,50.35
2022-08-27T02:38:49.370Z,49.90
2022-08-27T02:40:51.154Z,51.48
2022-08-27T02:42:55.776Z,50.17
2022-08-27T02:44:57.471Z,52.63
2022-08-27T02:46:59.129Z,51.62
2022-08-27T02:49:00.835Z,50.95
2022-08-27T02:51:02.483Z,50.68
2022-08-27T02:53:06.189Z,52.66
2022-08-27T02:55:08.665Z,52.62
2022-08-27T02:57:10.542Z,53.35
2022-08-27T02:59:12.156Z,52.31
2022-08-27T03:01:14.036Z,51.66
2022-08-27T03:03:15.756Z,52.66
2022-08-27T03:05:19.052Z,51.61
2022-08-27T03:07:23.566Z,50.61
2022-08-27T03:09:25.485Z,50.89
2022-08-27T03:11:27.596Z,51.03
2022-08-27T03:13:29.414Z,51.69
2022-08-27T03:15:31.287Z,52.94
2022-08-27T03:17:51.627Z,52.83
2022-08-27T03:19:53.273Z,51.69
2022-08-27T03:21:55.081Z,51.31
2022-08-27T03:23:57.041Z,53.84
2022-08-27T03:26:01.680Z,54.26
2022-08-27T03:28:04.112Z,53.32
2022-08-27T03:30:11.939Z,50.20
2022-08-27T03:32:13.554Z,51.60
2022-08-27T03:34:15.284Z,51.31
2022-08-27T03:36:21.926Z,50.59
2022-08-27T03:38:23.977Z,51.33
2022-08-27T03:40:25.676Z,51.78
2022-08-27T03:42:27.484Z,52.64
2022-08-27T03:44:29.555Z,52.30
2022-08-27T03:46:31.308Z,52.71
2022-08-27T03:48:34.186Z,51.95
2022-08-27T03:50:39.037Z,52.09
2022-08-27T03:52:40.769Z,52.63
2022-08-27T03:54:42.861Z,51.24
2022-08-27T03:56:45.095Z,52.30
2022-08-27T03:58:47.042Z,51.39
2022-08-27T04:00:48.702Z,50.92
2022-08-27T04:02:51.049Z,51.22
2022-08-27T04:04:52.832Z,51.70
2022-08-27T04:06:57.833Z,52.26
2022-08-27T04:09:01.163Z,51.53
2022-08-27T04:11:07.600Z,52.83
2022-08-27T04:13:09.227Z,50.44
2022-08-27T04:15:12.641Z,51.18
2022-08-27T04:17:14.337Z,50.14
2022-08-27T04:19:16.001Z,50.00
2022-08-27T04:21:17.636Z,49.68
2022-08-27T04:23:19.284Z,50.15
2022-08-27T04:25:20.929Z,50.57
2022-08-27T04:27:22.819Z,51.00
2022-08-27T04:29:24.528Z,51.54
2022-08-27T04:31:26.217Z,51.02
2022-08-27T04:33:27.858Z,50.90
2022-08-27T04:35:29.530Z,52.35
2022-08-27T04:37:34.711Z,52.04
2022-08-27T04:39:36.424Z,51.40
2022-08-27T04:41:38.138Z,50.91
2022-08-27T04:43:40.050Z,50.98
2022-08-27T04:45:46.830Z,51.83
2022-08-27T04:47:49.198Z,51.56
2022-08-27T04:49:50.836Z,50.92
2022-08-27T04:51:52.714Z,50.48
2022-08-27T04:53:55.094Z,52.01
2022-08-27T04:55:57.388Z,52.05
2022-08-27T04:57:59.776Z,51.22
2022-08-27T05:00:01.487Z,54.49
2022-08-27T05:02:05.766Z,55.84
2022-08-27T05:04:08.019Z,51.83
2022-08-27T05:06:09.901Z,51.43
2022-08-27T05:08:13.238Z,51.23
2022-08-27T05:10:14.893Z,52.20
2022-08-27T05:12:16.615Z,52.42
2022-08-27T05:14:19.863Z,53.67
2022-08-27T05:16:23.101Z,54.74
2022-08-27T05:18:24.786Z,51.81
2022-08-27T05:20:27.574Z,50.99
2022-08-27T05:22:29.186Z,51.10
2022-08-27T05:24:32.611Z,52.14
2022-08-27T05:26:36.824Z,50.93
2022-08-27T05:28:38.448Z,51.90
2022-08-27T05:30:44.338Z,51.33
2022-08-27T05:32:50.969Z,50.59
2022-08-27T05:34:53.094Z,50.53
2022-08-27T05:36:54.839Z,51.27
2022-08-27T05:38:58.514Z,51.15
2022-08-27T05:41:10.245Z,50.79
2022-08-27T05:43:15.974Z,52.47
2022-08-27T05:45:17.708Z,52.26
2022-08-27T05:47:19.337Z,51.38
2022-08-27T05:49:21.648Z,52.11
2022-08-27T05:51:28.314Z,51.79
2022-08-27T05:53:30.350Z,51.01
2022-08-27T05:55:37.731Z,52.11
2022-08-27T05:57:39.342Z,52.78
2022-08-27T05:59:59.546Z,52.95
2022-08-27T06:02:01.180Z,52.17
2022-08-27T06:04:04.828Z,51.07
2022-08-27T06:06:09.845Z,51.23
2022-08-27T06:08:12.306Z,54.34
2022-08-27T06:10:14.362Z,52.41
2022-08-27T06:12:16.070Z,52.18
2022-08-27T06:14:17.827Z,51.18
2022-08-27T06:16:20.270Z,51.31
2022-08-27T06:18:21.930Z,54.44
2022-08-27T06:20:23.900Z,56.52
2022-08-27T06:22:25.707Z,56.97
2022-08-27T06:24:27.405Z,55.59
2022-08-27T06:26:29.434Z,52.77
2022-08-27T06:28:31.559Z,52.67
2022-08-27T06:30:33.232Z,52.07
2022-08-27T06:32:35.057Z,50.58
2022-08-27T06:34:37.759Z,51.54
2022-08-27T06:36:42.004Z,53.27
2022-08-27T06:38:44.202Z,52.45
2022-08-27T06:40:46.393Z,52.58
2022-08-27T06:42:48.239Z,53.23
2022-08-27T06:44:50.029Z,53.27
2022-08-27T06:46:51.970Z,53.37
2022-08-27T06:48:55.659Z,55.04
2022-08-27T06:50:57.327Z,52.67
2022-08-27T06:52:58.961Z,52.06
2022-08-27T06:55:00.619Z,51.79
2022-08-27T06:57:02.233Z,52.70
2022-08-27T06:59:11.478Z,52.70
2022-08-27T07:01:25.164Z,51.53
2022-08-27T07:03:26.906Z,51.76
2022-08-27T07:05:28.627Z,51.19
2022-08-27T07:07:36.481Z,50.91
2022-08-27T07:09:41.619Z,50.89
2022-08-27T07:11:43.870Z,51.07
2022-08-27T07:13:47.309Z,50.92
2022-08-27T07:15:49.028Z,51.29
2022-08-27T07:17:52.618Z,50.53
2022-08-27T07:19:54.257Z,50.51
2022-08-27T07:21:56.269Z,50.49
2022-08-27T07:23:59.773Z,50.10
2022-08-27T07:26:01.696Z,50.68
2022-08-27T07:28:03.627Z,50.48
2022-08-27T07:30:10.623Z,51.39
2022-08-27T07:32:12.329Z,51.49
2022-08-27T07:34:14.005Z,52.02
2022-08-27T07:36:15.750Z,51.59
2022-08-27T07:38:17.870Z,50.80
2022-08-27T07:40:19.715Z,50.90
2022-08-27T07:42:39.922Z,51.37
2022-08-27T07:44:41.967Z,50.73
2022-08-27T07:46:47.958Z,50.18
2022-08-27T07:48:51.248Z,50.71
2022-08-27T07:50:53.364Z,50.56
2022-08-27T07:52:55.032Z,50.99
2022-08-27T07:54:56.934Z,51.25
2022-08-27T07:56:59.275Z,50.63
2022-08-27T07:59:00.934Z,51.37
2022-08-27T08:01:03.065Z,50.42
2022-08-27T08:03:04.745Z,50.10
2022-08-27T08:05:06.795Z,50.88
2022-08-27T08:07:08.607Z,50.66
2022-08-27T08:09:11.504Z,51.18
2022-08-27T08:11:16.013Z,51.73
2022-08-27T08:13:19.107Z,51.41
2022-08-27T08:15:20.908Z,52.28
2022-08-27T08:17:22.978Z,52.12
2022-08-27T08:19:25.091Z,51.61
2022-08-27T08:21:27.031Z,52.57
2022-08-27T08:23:29.259Z,51.88
2022-08-27T08:25:38.450Z,52.22
2022-08-27T08:27:42.364Z,53.25
2022-08-27T08:29:44.015Z,52.80
2022-08-27T08:31:46.895Z,53.75
2022-08-27T08:33:52.985Z,52.16
2022-08-27T08:35:54.865Z,52.71
2022-08-27T08:37:56.606Z,52.29
2022-08-27T08:39:58.357Z,54.33
2022-08-27T08:42:02.862Z,53.82
2022-08-27T08:44:17.238Z,55.32
2022-08-27T08:46:31.357Z,57.07
2022-08-27T08:48:34.890Z,56.16
2022-08-27T08:50:44.487Z,55.10
2022-08-27T08:52:55.392Z,55.21
2022-08-27T08:55:12.126Z,55.32
2022-08-27T08:57:22.832Z,54.34
2022-08-27T08:59:37.166Z,55.18
2022-08-27T09:01:38.824Z,54.21
2022-08-27T09:03:42.657Z,55.62
2022-08-27T09:05:49.263Z,55.80
2022-08-27T09:10:44.742Z,56.14
2022-08-27T09:12:46.575Z,54.92
2022-08-27T09:15:01.684Z,55.32
2022-08-27T09:17:10.788Z,56.37
2022-08-27T09:19:13.332Z,58.73
2022-08-27T09:21:42.232Z,56.58
2022-08-27T09:23:57.432Z,56.58
2022-08-27T09:25:59.127Z,53.86
2022-08-27T09:28:06.729Z,54.42
2022-08-27T09:30:19.052Z,55.61
2022-08-27T09:32:32.027Z,56.82
2022-08-27T09:34:39.531Z,56.72
2022-08-27T09:36:52.575Z,56.43
2022-08-27T09:38:58.823Z,54.47
2022-08-27T09:41:07.551Z,55.91
2022-08-27T09:43:24.216Z,57.79
2022-08-27T09:45:29.920Z,56.93
2022-08-27T09:47:45.412Z,55.68
2022-08-27T09:49:47.546Z,54.62
2022-08-27T09:51:49.276Z,55.10
2022-08-27T09:53:56.265Z,55.75
2022-08-27T09:56:00.750Z,53.85
2022-08-27T09:58:06.042Z,53.68
2022-08-27T10:00:14.872Z,53.35
2022-08-27T10:02:22.776Z,54.73
2022-08-27T10:04:50.107Z,54.19
2022-08-27T10:06:52.990Z,54.32
2022-08-27T10:09:06.500Z,53.86
2022-08-27T10:11:21.316Z,53.57
2022-08-27T10:14:17.241Z,52.80
2022-08-27T10:16:36.833Z,53.65
2022-08-27T10:19:16.894Z,53.08
2022-08-27T10:21:29.736Z,52.70
2022-08-27T10:23:37.032Z,54.58
2022-08-27T10:26:15.308Z,53.72
2022-08-27T10:28:22.832Z,53.46
2022-08-27T10:31:05.583Z,53.55
2022-08-27T10:33:23.425Z,53.25
2022-08-27T10:35:47.956Z,53.73
2022-08-27T10:38:18.157Z,53.28
2022-08-27T10:40:33.863Z,53.55
2022-08-27T10:42:44.296Z,53.18
2022-08-27T10:44:48.815Z,54.45
2022-08-27T10:47:14.041Z,55.11
2022-08-27T10:50:02.630Z,55.86
2022-08-27T10:52:28.862Z,56.18
2022-08-27T10:54:39.694Z,54.78
2022-08-27T10:57:14.503Z,53.72
2022-08-27T10:59:41.967Z,54.68
2022-08-27T11:03:39.715Z,54.14
2022-08-27T11:05:50.771Z,52.67
2022-08-27T11:08:39.775Z,52.00
2022-08-27T11:10:49.480Z,53.64
2022-08-27T11:12:56.634Z,53.88
2022-08-27T11:15:22.290Z,52.74
2022-08-27T11:17:39.868Z,53.31
2022-08-27T11:20:02.161Z,54.15
2022-08-27T11:22:26.219Z,53.99
2022-08-27T11:24:37.549Z,52.98
2022-08-27T11:26:42.780Z,53.91
2022-08-27T11:28:55.488Z,54.26
2022-08-27T11:31:12.618Z,54.45
2022-08-27T11:33:20.483Z,54.87
2022-08-27T11:35:47.627Z,53.01
2022-08-27T11:38:08.679Z,54.32
2022-08-27T11:40:41.233Z,53.25
2022-08-27T11:42:45.711Z,55.77
2022-08-27T11:44:49.994Z,53.97
2022-08-27T11:47:14.192Z,55.43
2022-08-27T11:49:28.660Z,54.27
2022-08-27T11:51:39.701Z,53.64
2022-08-27T11:53:54.874Z,53.70
2022-08-27T11:55:57.250Z,53.52
2022-08-27T11:58:06.981Z,54.02
2022-08-27T12:00:36.510Z,55.75
2022-08-27T12:02:38.149Z,55.45
2022-08-27T12:04:42.663Z,55.65
2022-08-27T12:06:50.457Z,55.08
2022-08-27T12:08:52.852Z,55.16
2022-08-27T12:11:00.325Z,54.77
2022-08-27T12:13:13.017Z,55.26
2022-08-27T12:15:29.551Z,55.95
2022-08-27T12:18:05.223Z,55.75
2022-08-27T12:20:32.168Z,55.95
2022-08-27T12:23:23.049Z,54.29
2022-08-27T12:25:25.030Z,54.21
2022-08-27T12:27:34.759Z,57.18
2022-08-27T12:29:46.814Z,55.28
2022-08-27T12:31:51.053Z,53.84
2022-08-27T12:33:54.165Z,54.23
2022-08-27T12:35:59.327Z,53.81
2022-08-27T12:38:07.428Z,54.51
2022-08-27T12:40:19.480Z,54.13
2022-08-27T12:42:22.909Z,55.28
2022-08-27T12:44:28.602Z,54.42
2022-08-27T12:46:30.699Z,54.99
2022-08-27T12:48:47.028Z,54.26
2022-08-27T12:51:32.237Z,54.30
2022-08-27T12:53:43.131Z,53.97
2022-08-27T12:56:14.206Z,54.74
2022-08-27T12:58:34.967Z,54.11
2022-08-27T13:01:10.636Z,54.19
2022-08-27T13:03:45.866Z,55.08
2022-08-27T13:05:49.876Z,54.24
2022-08-27T13:07:54.134Z,56.15
2022-08-27T13:09:57.511Z,54.08
2022-08-27T13:12:01.302Z,52.49
2022-08-27T13:14:12.296Z,52.00
2022-08-27T13:16:14.876Z,51.92
2022-08-27T13:18:17.266Z,51.52
2022-08-27T13:20:23.278Z,50.71
2022-08-27T13:22:26.349Z,52.21
2022-08-27T13:24:31.879Z,52.47
2022-08-27T13:26:37.537Z,51.96
2022-08-27T13:28:42.267Z,52.58
2022-08-27T13:30:46.806Z,52.71
2022-08-27T13:32:50.462Z,52.93
2022-08-27T13:34:52.348Z,51.87
2022-08-27T13:37:07.589Z,50.99
2022-08-27T13:39:09.204Z,51.57
2022-08-27T13:41:28.278Z,50.79
2022-08-27T13:43:36.514Z,51.26
2022-08-27T13:45:40.622Z,52.14
2022-08-27T13:47:49.209Z,50.53
2022-08-27T13:49:52.216Z,50.55
2022-08-27T13:52:21.904Z,51.77
2022-08-27T13:54:24.234Z,51.34
2022-08-27T13:56:29.724Z,51.04
2022-08-27T13:58:33.950Z,51.40
2022-08-27T14:00:37.863Z,50.08
2022-08-27T14:02:39.747Z,50.21
2022-08-27T14:05:03.670Z,51.94
2022-08-27T14:07:12.927Z,52.27
2022-08-27T14:09:26.693Z,50.22
2022-08-27T14:11:28.431Z,49.74
2022-08-27T14:13:40.612Z,50.28
2022-08-27T14:15:48.609Z,50.33
2022-08-27T14:17:50.737Z,49.48
2022-08-27T14:19:52.548Z,49.24
2022-08-27T14:21:54.263Z,51.20
2022-08-27T14:23:56.218Z,49.88
2022-08-27T14:26:00.410Z,51.61
2022-08-27T14:28:02.314Z,50.75
2022-08-27T14:30:07.753Z,48.20
2022-08-27T14:32:09.458Z,48.84
2022-08-27T14:34:11.602Z,49.28
2022-08-27T14:36:13.943Z,47.59
2022-08-27T14:38:23.119Z,47.91
2022-08-27T14:40:25.267Z,48.55
2022-08-27T14:42:28.636Z,48.35
2022-08-27T14:44:30.550Z,48.95
2022-08-27T14:46:36.177Z,49.39
2022-08-27T14:48:51.565Z,52.89
2022-08-27T14:50:54.796Z,49.86
2022-08-27T14:52:56.458Z,49.09
2022-08-27T14:54:58.134Z,49.74
2022-08-27T14:56:59.895Z,53.45
2022-08-27T14:59:01.577Z,55.20
2022-08-27T15:01:04.415Z,56.03
2022-08-27T15:03:07.801Z,54.55
2022-08-27T15:05:11.341Z,54.01
2022-08-27T15:07:13.725Z,52.37
2022-08-27T15:09:15.761Z,49.42
2022-08-27T15:11:21.707Z,51.33
2022-08-27T15:13:23.705Z,49.39
2022-08-27T15:15:25.448Z,49.01
2022-08-27T15:17:35.217Z,48.76
2022-08-27T15:19:37.397Z,48.32
2022-08-27T15:21:40.881Z,49.53
2022-08-27T15:23:45.476Z,50.77
2022-08-27T15:25:47.599Z,51.80
2022-08-27T15:27:49.501Z,50.82
2022-08-27T15:29:52.068Z,53.15
2022-08-27T15:31:54.379Z,52.18
2022-08-27T15:33:56.062Z,49.43
2022-08-27T15:36:02.053Z,47.63
2022-08-27T15:38:05.641Z,47.59
2022-08-27T15:40:08.263Z,51.77
2022-08-27T15:42:11.723Z,51.69
2022-08-27T15:44:13.819Z,49.59
2022-08-27T15:46:16.534Z,47.60
2022-08-27T15:48:18.181Z,48.05
2022-08-27T15:50:20.267Z,46.62
2022-08-27T15:52:23.289Z,48.42
2022-08-27T15:54:25.299Z,48.81
2022-08-27T15:56:30.346Z,47.05
2022-08-27T15:58:37.718Z,46.57
2022-08-27T16:00:41.621Z,45.88
2022-08-27T16:02:44.828Z,45.47
2022-08-27T16:04:49.231Z,45.39
2022-08-27T16:06:51.079Z,49.21
2022-08-27T16:08:53.595Z,47.98
2022-08-27T16:10:56.884Z,47.51
2022-08-27T16:12:58.571Z,47.32
2022-08-27T16:15:00.973Z,47.01
2022-08-27T16:17:02.880Z,46.77
2022-08-27T16:19:06.605Z,49.03
2022-08-27T16:21:08.393Z,46.97
2022-08-27T16:23:10.015Z,47.62
2022-08-27T16:25:15.346Z,47.29
2022-08-27T16:27:19.974Z,47.81
2022-08-27T16:29:21.535Z,47.71
2022-08-27T16:31:23.359Z,47.31
2022-08-27T16:33:25.374Z,48.43
2022-08-27T16:35:27.217Z,48.08
2022-08-27T16:37:28.848Z,47.08
2022-08-27T16:39:33.693Z,47.57
2022-08-27T16:41:37.969Z,46.96
2022-08-27T16:43:39.971Z,46.12
2022-08-27T16:45:41.723Z,46.09
2022-08-27T16:48:02.254Z,46.43
2022-08-27T16:50:26.045Z,46.56
2022-08-27T16:52:28.912Z,46.11
2022-08-27T16:54:30.500Z,46.63
2022-08-27T16:56:37.116Z,47.22
2022-08-27T16:58:39.549Z,47.34
2022-08-27T17:00:41.312Z,46.97
2022-08-27T17:02:43.015Z,46.19
2022-08-27T17:04:51.030Z,47.55
2022-08-27T17:07:07.320Z,47.77
2022-08-27T17:09:08.922Z,47.81
2022-08-27T17:11:13.441Z,47.81
2022-08-27T17:13:18.010Z,47.89
2022-08-27T17:15:21.214Z,47.09
2022-08-27T17:17:22.800Z,48.02
2022-08-27T17:19:26.208Z,47.86
2022-08-27T17:21:30.200Z,48.01
2022-08-27T17:23:41.398Z,47.86
2022-08-27T17:25:42.974Z,47.53
2022-08-27T17:27:44.912Z,47.88
2022-08-27T17:29:46.582Z,47.19
2022-08-27T17:31:48.315Z,47.33
2022-08-27T17:33:52.204Z,47.18
2022-08-27T17:35:53.881Z,48.69
2022-08-27T17:37:55.607Z,49.69
2022-08-27T17:39:57.275Z,50.22
2022-08-27T17:41:59.100Z,49.42
2022-08-27T17:44:13.959Z,48.86
2022-08-27T17:46:15.798Z,48.75
2022-08-27T17:48:19.267Z,48.54
2022-08-27T17:50:21.276Z,48.52
2022-08-27T17:52:23.053Z,47.82
2022-08-27T17:54:33.894Z,47.52
2022-08-27T17:56:37.281Z,49.27
2022-08-27T17:58:38.841Z,49.89
2022-08-27T18:00:40.654Z,49.75
2022-08-27T18:02:49.443Z,48.75
2022-08-27T18:04:51.646Z,48.85
2022-08-27T18:06:53.331Z,50.25
2022-08-27T18:08:55.100Z,48.76
2022-08-27T18:10:56.727Z,49.64
2022-08-27T18:12:58.935Z,49.17
2022-08-27T18:15:18.803Z,49.85
2022-08-27T18:17:22.088Z,50.53
2022-08-27T18:19:24.043Z,49.22
2022-08-27T18:21:26.394Z,48.90
2022-08-27T18:23:28.140Z,48.09
2022-08-27T18:25:35.940Z,47.42
2022-08-27T18:27:40.094Z,46.97
2022-08-27T18:29:41.876Z,47.37
2022-08-27T18:31:43.989Z,47.46
2022-08-27T18:33:46.275Z,47.72
2022-08-27T18:35:47.965Z,47.72
2022-08-27T18:37:50.196Z,47.17
2022-08-27T18:39:52.196Z,47.69
2022-08-27T18:41:54.931Z,46.96
2022-08-27T18:43:57.632Z,47.02
2022-08-27T18:45:59.859Z,47.61
2022-08-27T18:48:02.712Z,47.14
2022-08-27T18:50:06.627Z,47.57
2022-08-27T18:52:12.136Z,48.27
2022-08-27T18:54:13.720Z,48.48
2022-08-27T18:56:18.747Z,48.11
2022-08-27T18:58:20.924Z,48.95
2022-08-27T19:00:22.924Z,48.53
2022-08-27T19:02:24.746Z,48.10
2022-08-27T19:04:28.292Z,47.74
2022-08-27T19:06:30.096Z,48.59
2022-08-27T19:08:31.791Z,48.37
2022-08-27T19:10:33.431Z,48.16
2022-08-27T19:12:36.827Z,48.82
2022-08-27T19:14:38.771Z,49.08
2022-08-27T19:16:43.110Z,49.06
2022-08-27T19:18:45.223Z,48.94
2022-08-27T19:20:46.801Z,49.15
2022-08-27T19:22:48.636Z,48.34
2022-08-27T19:24:52.227Z,48.61
2022-08-27T19:26:54.441Z,48.33
2022-08-27T19:28:56.156Z,47.93
2022-08-27T19:30:57.751Z,48.20
2022-08-27T19:32:59.320Z,47.85
2022-08-27T19:35:01.054Z,47.81
2022-08-27T19:37:04.364Z,47.37
2022-08-27T19:39:06.827Z,47.69
2022-08-27T19:41:08.425Z,48.30
2022-08-27T19:43:10.134Z,47.53
2022-08-27T19:45:12.296Z,47.45
2022-08-27T19:47:15.846Z,48.87
2022-08-27T19:49:20.553Z,49.68
2022-08-27T19:51:22.148Z,48.50
2022-08-27T19:53:24.343Z,47.78
2022-08-27T19:55:26.179Z,48.68
2022-08-27T19:57:27.907Z,49.31
2022-08-27T19:59:29.680Z,48.05
2022-08-27T20:01:31.658Z,47.62
2022-08-27T20:03:33.313Z,47.94
2022-08-27T20:05:35.787Z,47.85
2022-08-27T20:07:37.429Z,49.23
2022-08-27T20:09:40.703Z,48.94
2022-08-27T20:11:43.529Z,48.93
2022-08-27T20:13:50.338Z,48.24
2022-08-27T20:15:52.443Z,48.61
2022-08-27T20:17:54.932Z,49.42
2022-08-27T20:19:56.525Z,48.31
2022-08-27T20:21:58.066Z,49.03
2022-08-27T20:23:59.913Z,49.48
2022-08-27T20:26:01.719Z,49.29
2022-08-27T20:28:22.258Z,50.56
2022-08-27T20:30:31.907Z,48.79
2022-08-27T20:32:35.639Z,47.80
2022-08-27T20:34:37.547Z,48.64
2022-08-27T20:36:39.259Z,49.26
2022-08-27T20:38:40.921Z,48.62
2022-08-27T20:40:42.810Z,48.57
2022-08-27T20:42:44.831Z,48.20
2022-08-27T20:44:47.119Z,47.03
2022-08-27T20:46:52.193Z,48.30
2022-08-27T20:48:54.326Z,48.27
2022-08-27T20:50:56.623Z,48.32
2022-08-27T20:52:58.242Z,48.17
2022-08-27T20:54:59.790Z,49.04
2022-08-27T20:57:02.545Z,48.62
2022-08-27T20:59:22.726Z,48.91
2022-08-27T21:01:24.516Z,47.98
2022-08-27T21:03:26.459Z,47.61
2022-08-27T21:05:31.509Z,48.03
2022-08-27T21:07:33.097Z,47.87
2022-08-27T21:09:35.566Z,48.33
2022-08-27T21:11:43.423Z,48.91
2022-08-27T21:13:55.739Z,47.80
2022-08-27T21:15:58.455Z,48.95
2022-08-27T21:18:00.306Z,47.89
2022-08-27T21:20:02.479Z,47.72
2022-08-27T21:22:06.246Z,47.48
2022-08-27T21:24:08.175Z,46.87
2022-08-27T21:26:12.043Z,47.38
2022-08-27T21:28:13.702Z,45.78
2022-08-27T21:30:15.543Z,46.27
2022-08-27T21:32:17.397Z,46.56
2022-08-27T21:34:19.023Z,46.76
2022-08-27T21:36:20.690Z,45.93
2022-08-27T21:38:22.294Z,46.28
2022-08-27T21:40:25.718Z,47.04
2022-08-27T21:42:27.396Z,47.03
2022-08-27T21:44:30.424Z,46.83
2022-08-27T21:46:32.146Z,48.37
2022-08-27T21:48:34.054Z,46.73
2022-08-27T21:50:35.788Z,47.64
2022-08-27T21:52:37.477Z,46.64
2022-08-27T21:54:41.887Z,47.32
2022-08-27T21:56:43.781Z,47.11
2022-08-27T21:58:45.422Z,47.86
2022-08-27T22:00:49.342Z,48.42
2022-08-27T22:02:51.111Z,47.33
2022-08-27T22:04:52.775Z,46.91
2022-08-27T22:06:54.888Z,48.08
2022-08-27T22:08:56.546Z,47.71
2022-08-27T22:10:58.667Z,46.70
2022-08-27T22:13:00.657Z,47.74
2022-08-27T22:15:02.468Z,48.17
2022-08-27T22:17:04.651Z,46.66
2022-08-27T22:19:06.250Z,47.89
2022-08-27T22:21:07.917Z,48.85
2022-08-27T22:23:11.623Z,47.46
2022-08-27T22:25:13.510Z,46.63
2022-08-27T22:27:15.325Z,47.20
2022-08-27T22:29:16.976Z,47.97
2022-08-27T22:31:19.162Z,47.57
2022-08-27T22:33:20.949Z,47.34
2022-08-27T22:35:23.158Z,48.90
2022-08-27T22:37:25.422Z,48.66
2022-08-27T22:39:27.161Z,48.29
2022-08-27T22:41:28.811Z,48.50
2022-08-27T22:43:37.673Z,48.39
2022-08-27T22:45:39.298Z,47.22
2022-08-27T22:47:41.696Z,47.36
2022-08-27T22:49:44.300Z,48.65
2022-08-27T22:51:46.094Z,48.59
2022-08-27T22:53:47.737Z,49.36
2022-08-27T22:55:50.325Z,48.80
2022-08-27T22:57:54.404Z,49.76
2022-08-27T22:59:58.754Z,49.11
2022-08-27T23:02:00.820Z,48.26
2022-08-27T23:04:03.852Z,48.61
2022-08-27T23:06:05.727Z,46.59
2022-08-27T23:08:11.208Z,48.65
2022-08-27T23:10:17.101Z,48.85
2022-08-27T23:12:19.924Z,48.69
2022-08-27T23:14:22.069Z,47.90
2022-08-27T23:16:24.255Z,49.33
2022-08-27T23:18:25.982Z,47.87
2022-08-27T23:20:28.796Z,48.33
2022-08-27T23:22:31.169Z,47.73
2022-08-27T23:24:32.821Z,46.54
2022-08-27T23:26:52.809Z,48.28
2022-08-27T23:28:56.283Z,48.03
2022-08-27T23:30:59.074Z,46.85
2022-08-27T23:33:00.786Z,48.14
2022-08-27T23:35:02.438Z,46.86
2022-08-27T23:37:04.026Z,48.13
2022-08-27T23:39:05.621Z,48.91
2022-08-27T23:41:08.050Z,48.86
2022-08-27T23:43:10.170Z,47.91
2022-08-27T23:45:16.163Z,49.13
2022-08-27T23:47:18.324Z,48.09
2022-08-27T23:49:19.917Z,48.97
2022-08-27T23:51:21.722Z,48.63
2022-08-27T23:53:23.344Z,47.53
2022-08-27T23:55:25.073Z,47.83
2022-08-27T23:57:26.908Z,47.79
2022-08-27T23:59:30.477Z,47.91
